Time;durP1;ratioP1;P1;durP2;ratioP2;P2;SDS_P1;SDS_P2;PMS_P1;PMS_P2;Temp;Humidity;BMP_temperature;BMP_pressure;BME280_temperature;BME280_humidity;BME280_pressure;Samples;Min_cycle;Max_cycle;Signal;HPM_P1;HPM_P2
2023/05/15 00:01:58;;;;;;;8.17;4.40;;;13.00;99.90;12.30;100334;;;;569840;248;24106;-73
2023/05/15 00:04:25;;;;;;;8.20;4.07;;;13.10;99.90;12.30;100323;;;;570552;247;24086;-73
2023/05/15 00:06:53;;;;;;;11.93;4.73;;;13.10;99.90;12.30;100326;;;;570536;247;24093;-73
2023/05/15 00:09:21;;;;;;;7.70;5.03;;;13.10;99.90;12.30;100326;;;;570815;247;24079;-73
2023/05/15 00:11:49;;;;;;;10.47;4.87;;;12.80;99.90;12.30;100310;;;;570790;247;24118;-76
2023/05/15 00:14:17;;;;;;;13.90;5.77;;;12.90;99.90;12.20;100310;;;;570474;248;24089;-73
2023/05/15 00:16:45;;;;;;;11.80;5.07;;;12.70;99.90;12.20;100312;;;;570431;248;24106;-74
2023/05/15 00:19:13;;;;;;;12.70;4.70;;;12.90;99.90;12.20;100296;;;;570509;248;24116;-75
2023/05/15 00:21:42;;;;;;;15.97;5.47;;;12.90;99.90;12.20;100304;;;;570442;248;24087;-77
2023/05/15 00:24:11;;;;;;;15.50;4.37;;;12.90;99.90;12.20;100302;;;;569790;248;24174;-76
2023/05/15 00:26:39;;;;;;;6.73;4.60;;;12.90;99.90;12.20;100303;;;;569751;248;24125;-81
2023/05/15 00:29:08;;;;;;;13.43;5.17;;;12.60;99.90;12.20;100292;;;;569789;248;24277;-79
2023/05/15 00:31:36;;;;;;;10.10;4.40;;;12.90;99.90;12.10;100288;;;;569910;248;24088;-78
2023/05/15 00:34:03;;;;;;;6.80;3.73;;;12.90;99.90;12.20;100286;;;;569880;248;24088;-74
2023/05/15 00:36:31;;;;;;;14.13;4.87;;;12.70;99.90;12.20;100288;;;;569739;248;24090;-75
2023/05/15 00:38:59;;;;;;;7.03;4.00;;;13.00;99.90;12.20;100279;;;;569831;248;24123;-76
2023/05/15 00:41:30;;;;;;;8.00;4.23;;;12.60;99.90;12.20;100281;;;;569513;248;24100;-76
2023/05/15 00:43:59;;;;;;;11.63;4.60;;;12.90;99.90;12.20;100277;;;;577859;248;24091;-75
2023/05/15 00:46:24;;;;;;;8.27;4.60;;;12.90;99.90;12.20;100276;;;;569381;248;24102;-79
2023/05/15 00:48:56;;;;;;;11.23;5.07;;;12.90;99.90;12.20;100274;;;;569354;248;24112;-72
2023/05/15 00:51:21;;;;;;;9.83;4.90;;;12.80;99.90;12.10;100273;;;;578056;248;24088;-74
2023/05/15 00:53:55;;;;;;;11.03;5.33;;;12.80;99.90;12.10;100268;;;;569468;248;24119;-73
2023/05/15 00:56:21;;;;;;;12.33;4.40;;;12.80;99.90;12.10;100268;;;;569841;248;24117;-73
2023/05/15 00:58:50;;;;;;;12.83;4.50;;;12.80;99.90;12.10;100260;;;;569507;248;24160;-73
2023/05/15 01:01:17;;;;;;;6.87;3.83;;;12.80;99.90;12.10;100263;;;;569880;248;24098;-74
2023/05/15 01:03:45;;;;;;;8.70;4.20;;;13.10;99.90;12.20;100251;;;;569953;248;24094;-73
2023/05/15 01:06:13;;;;;;;7.57;3.83;;;12.90;99.90;12.30;100257;;;;569897;248;24087;-74
2023/05/15 01:08:44;;;;;;;6.80;4.33;;;13.00;99.90;12.40;100253;;;;565055;248;36309;-73
2023/05/15 01:11:15;;;;;;;13.50;5.20;;;13.00;99.90;12.40;100260;;;;569539;248;24105;-73
2023/05/15 01:13:40;;;;;;;10.53;4.97;;;12.70;99.90;12.50;100254;;;;569681;248;24217;-74
2023/05/15 01:16:08;;;;;;;13.47;4.83;;;13.40;99.90;12.50;100254;;;;570902;247;24101;-73
2023/05/15 01:18:36;;;;;;;12.47;5.13;;;13.10;99.90;12.50;100249;;;;570814;247;24096;-74
2023/05/15 01:21:10;;;;;;;6.73;3.70;;;13.10;99.90;12.50;100247;;;;570666;247;24088;-73
2023/05/15 01:24:00;;;;;;;10.87;4.73;;;12.60;99.90;12.50;100252;;;;570614;247;24086;-73
2023/05/15 01:26:51;;;;;;;8.57;4.30;;;13.20;99.90;12.40;100244;;;;569889;248;24137;-73
2023/05/15 01:29:53;;;;;;;14.57;5.83;;;13.30;99.90;12.40;100242;;;;569703;248;24227;-74
2023/05/15 01:32:24;;;;;;;5.97;3.50;;;13.30;99.90;12.40;100243;;;;571671;248;24095;-74
2023/05/15 01:34:54;;;;;;;11.87;4.47;;;13.00;99.90;12.40;100243;;;;567787;248;24090;-73
2023/05/15 01:37:23;;;;;;;6.60;4.82;;;13.20;99.90;12.40;100244;;;;573061;248;35358;-73
2023/05/15 01:39:52;;;;;;;7.93;4.87;;;13.10;99.90;12.40;100238;;;;564687;248;35360;-74
2023/05/15 01:42:20;;;;;;;6.77;4.47;;;13.20;99.90;12.40;100231;;;;569591;248;24135;-73
2023/05/15 01:44:51;;;;;;;8.17;4.40;;;13.20;99.90;12.40;100226;;;;569667;248;24084;-73
2023/05/15 01:47:19;;;;;;;10.47;4.90;;;13.00;99.90;12.40;100234;;;;578161;248;24091;-74
2023/05/15 01:49:49;;;;;;;19.07;4.90;;;13.40;99.90;12.30;100231;;;;569795;248;24104;-73
2023/05/15 01:52:17;;;;;;;7.60;4.27;;;12.60;99.90;12.30;100228;;;;577980;248;24103;-73
2023/05/15 01:54:45;;;;;;;9.63;4.07;;;13.10;99.90;12.30;100221;;;;569482;248;24147;-74
2023/05/15 01:57:13;;;;;;;10.47;4.60;;;13.70;99.90;12.30;100216;;;;569789;248;24079;-75
2023/05/15 01:59:44;;;;;;;7.20;3.73;;;13.20;99.90;12.20;100214;;;;569540;248;24218;-74
2023/05/15 02:02:09;;;;;;;7.33;4.37;;;12.80;99.90;12.20;100213;;;;569606;248;24097;-75
2023/05/15 02:04:37;;;;;;;8.77;4.13;;;13.00;99.90;12.20;100216;;;;578308;248;24083;-74
2023/05/15 02:07:08;;;;;;;6.60;3.67;;;13.10;99.90;12.20;100212;;;;569459;248;24084;-77
2023/05/15 02:09:36;;;;;;;7.20;4.27;;;12.70;99.90;12.10;100209;;;;569306;248;24111;-74
2023/05/15 02:12:01;;;;;;;10.50;4.67;;;11.90;99.90;12.10;100210;;;;569619;248;24123;-76
2023/05/15 02:14:32;;;;;;;8.27;4.30;;;12.70;99.90;12.10;100211;;;;578013;248;24146;-75
2023/05/15 02:16:57;;;;;;;12.33;4.97;;;12.80;99.90;12.10;100204;;;;569341;248;24204;-73
2023/05/15 02:19:26;;;;;;;16.17;5.67;;;12.90;99.90;12.10;100210;;;;569490;248;24098;-74
2023/05/15 02:21:54;;;;;;;14.90;4.87;;;13.00;99.90;12.10;100210;;;;569547;248;24102;-77
2023/05/15 02:24:21;;;;;;;11.73;5.20;;;13.00;99.90;12.10;100206;;;;569593;248;24080;-73
2023/05/15 02:27:05;;;;;;;14.57;5.33;;;13.00;99.90;12.20;100193;;;;570372;247;24070;-72
2023/05/15 02:30:00;;;;;;;4.60;3.47;;;12.90;99.90;12.20;100199;;;;579340;247;24087;-73
2023/05/15 02:32:31;;;;;;;9.33;4.40;;;13.10;99.90;12.30;100189;;;;579029;247;24111;-73
2023/05/15 02:35:33;;;;;;;12.80;3.97;;;13.00;99.90;12.30;100191;;;;569782;247;24100;-74
2023/05/15 02:38:01;;;;;;;12.03;4.10;;;12.90;99.90;12.40;100185;;;;569970;248;24115;-75
2023/05/15 02:40:29;;;;;;;14.30;4.97;;;13.00;99.90;12.50;100185;;;;569948;248;24097;-72
2023/05/15 02:42:57;;;;;;;11.40;4.53;;;13.20;99.90;12.60;100178;;;;569989;248;24096;-78
2023/05/15 02:45:26;;;;;;;10.00;4.33;;;13.40;99.90;12.60;100182;;;;570054;248;24104;-75
2023/05/15 02:47:54;;;;;;;14.47;5.47;;;13.40;99.90;12.70;100174;;;;569824;248;24080;-76
2023/05/15 02:50:23;;;;;;;10.60;4.77;;;13.40;99.90;12.70;100176;;;;569921;248;24080;-74
2023/05/15 02:52:52;;;;;;;9.90;4.37;;;13.40;99.90;12.70;100161;;;;569864;248;24144;-74
2023/05/15 02:55:20;;;;;;;11.63;4.90;;;13.20;99.90;12.70;100167;;;;568833;248;24093;-75
2023/05/15 02:57:47;;;;;;;8.67;4.53;;;13.60;99.90;12.80;100164;;;;570121;248;24253;-81
2023/05/15 03:00:18;;;;;;;13.47;5.97;;;13.50;99.90;12.70;100160;;;;569845;248;24083;-73
2023/05/15 03:02:43;;;;;;;11.80;5.03;;;13.50;99.90;12.70;100158;;;;569627;248;24169;-74
2023/05/15 03:05:11;;;;;;;7.67;4.37;;;13.40;99.90;12.70;100148;;;;569701;248;24180;-76
2023/05/15 03:07:43;;;;;;;7.67;4.10;;;13.70;99.90;12.70;100150;;;;569845;248;24081;-73
2023/05/15 03:10:08;;;;;;;12.70;5.03;;;13.40;99.90;12.70;100152;;;;578317;248;24121;-75
2023/05/15 03:12:37;;;;;;;13.80;6.83;;;13.40;99.90;12.70;100139;;;;569560;248;24094;-78
2023/05/15 03:15:05;;;;;;;8.50;4.53;;;13.40;99.90;12.70;100137;;;;569789;248;24105;-78
2023/05/15 03:17:34;;;;;;;15.13;5.13;;;13.40;99.90;12.70;100131;;;;569651;248;24109;-74
2023/05/15 03:20:03;;;;;;;6.47;4.30;;;13.50;99.90;12.70;100123;;;;570147;248;24083;-73
2023/05/15 03:22:30;;;;;;;11.17;4.63;;;13.50;99.90;12.70;100126;;;;570056;248;24087;-76
2023/05/15 03:25:00;;;;;;;11.37;5.33;;;13.30;99.90;12.70;100126;;;;569959;248;24135;-81
2023/05/15 03:27:31;;;;;;;10.00;5.37;;;13.50;99.90;12.80;100129;;;;564846;248;35415;-76
2023/05/15 03:29:55;;;;;;;14.27;6.95;;;13.40;99.90;12.80;100129;;;;564884;248;35432;-79
2023/05/15 03:32:23;;;;;;;11.60;5.93;;;13.60;99.90;12.80;100128;;;;570120;248;25171;-76
2023/05/15 03:34:51;;;;;;;9.43;4.93;;;13.60;99.90;12.80;100124;;;;569717;248;24083;-80
2023/05/15 03:37:19;;;;;;;7.20;3.93;;;13.50;99.90;12.90;100123;;;;569747;248;24194;-78
2023/05/15 03:39:47;;;;;;;8.87;4.60;;;13.60;99.90;12.90;100116;;;;570933;247;24096;-78
2023/05/15 03:42:21;;;;;;;13.00;5.57;;;13.70;99.90;12.90;100111;;;;570652;246;24242;-76
2023/05/15 03:44:43;;;;;;;12.77;4.97;;;13.60;99.90;12.90;100102;;;;570753;247;24095;-79
2023/05/15 03:47:11;;;;;;;10.90;4.90;;;13.60;99.90;12.90;100107;;;;570812;247;24088;-79
2023/05/15 03:49:39;;;;;;;18.07;5.80;;;13.30;99.90;12.90;100102;;;;570466;248;24085;-76
2023/05/15 03:52:07;;;;;;;11.17;5.70;;;13.50;99.90;12.90;100105;;;;570466;248;24228;-77
2023/05/15 03:54:39;;;;;;;10.10;5.60;;;13.40;99.90;12.90;100107;;;;570460;248;24078;-73
2023/05/15 03:57:07;;;;;;;12.13;5.10;;;13.50;99.90;12.90;100105;;;;569994;248;24123;-78
2023/05/15 03:59:32;;;;;;;12.23;5.77;;;13.70;99.90;12.90;100099;;;;572920;248;24098;-76
2023/05/15 04:02:00;;;;;;;6.70;3.83;;;13.60;99.90;13.00;100105;;;;569963;248;24117;-73
2023/05/15 04:04:28;;;;;;;8.20;4.60;;;13.60;99.90;13.00;100104;;;;569841;248;24079;-72
2023/05/15 04:06:57;;;;;;;9.27;5.00;;;13.70;99.90;13.00;100105;;;;569729;248;24088;-72
2023/05/15 04:09:25;;;;;;;8.43;4.70;;;13.60;99.90;13.00;100100;;;;569844;248;24087;-73
2023/05/15 04:11:53;;;;;;;13.30;5.70;;;13.50;99.90;13.00;100098;;;;569770;248;24152;-73
2023/05/15 04:14:21;;;;;;;11.67;4.93;;;14.20;99.90;13.00;100091;;;;569764;248;24086;-72
2023/05/15 04:16:49;;;;;;;10.37;5.33;;;13.80;99.90;13.10;100096;;;;569592;248;24104;-74
2023/05/15 04:19:18;;;;;;;17.53;6.40;;;13.80;99.90;13.10;100102;;;;569694;248;24072;-75
2023/05/15 04:21:46;;;;;;;8.53;4.70;;;13.80;99.90;13.20;100100;;;;569604;248;24075;-75
2023/05/15 04:24:14;;;;;;;19.40;6.20;;;13.80;99.90;13.30;100092;;;;569414;248;24135;-80
2023/05/15 04:26:42;;;;;;;11.43;5.50;;;13.90;99.90;13.30;100093;;;;569989;248;24097;-74
2023/05/15 04:29:10;;;;;;;10.50;5.47;;;14.10;99.90;13.40;100094;;;;569917;248;24086;-81
2023/05/15 04:31:38;;;;;;;14.50;6.03;;;14.00;99.90;13.50;100098;;;;569983;248;24073;-79
2023/05/15 04:34:06;;;;;;;14.67;5.40;;;14.20;99.90;13.60;100089;;;;569905;248;24097;-79
2023/05/15 04:36:34;;;;;;;13.00;6.62;;;14.20;99.90;13.60;100088;;;;564504;248;46281;-81
2023/05/15 04:39:02;;;;;;;14.90;5.90;;;14.60;99.90;13.70;100090;;;;569617;248;24099;-81
2023/05/15 04:41:32;;;;;;;10.97;5.60;;;14.60;99.90;13.80;100078;;;;569551;248;24075;-74
2023/05/15 04:43:58;;;;;;;7.23;4.43;;;14.60;99.90;13.90;100081;;;;569673;248;24102;-73
2023/05/15 04:46:27;;;;;;;10.40;4.67;;;14.50;99.90;13.90;100083;;;;569576;248;24119;-80
2023/05/15 04:48:58;;;;;;;14.83;5.13;;;14.70;99.90;14.00;100089;;;;569724;248;24091;-75
2023/05/15 04:51:22;;;;;;;8.87;5.00;;;14.70;99.90;14.10;100085;;;;570649;247;24091;-78
2023/05/15 04:53:51;;;;;;;10.10;5.50;;;14.70;99.90;14.10;100073;;;;570612;247;24101;-81
2023/05/15 04:56:20;;;;;;;24.70;6.83;;;14.80;99.90;14.20;100068;;;;570456;247;24104;-82
2023/05/15 04:58:48;;;;;;;19.10;6.67;;;14.70;99.90;14.30;100067;;;;570399;248;24105;-75
2023/05/15 05:01:16;;;;;;;18.17;5.77;;;15.10;99.90;14.40;100065;;;;570459;248;24207;-80
2023/05/15 05:03:45;;;;;;;14.00;6.62;;;15.20;99.90;14.50;100066;;;;565833;248;35345;-80
2023/05/15 05:06:13;;;;;;;16.17;6.20;;;15.70;99.90;14.60;100053;;;;570773;248;24129;-80
2023/05/15 05:08:40;;;;;;;9.40;5.73;;;15.50;99.90;14.70;100053;;;;570144;248;24080;-77
2023/05/15 05:11:08;;;;;;;14.30;5.70;;;15.50;99.90;14.80;100052;;;;569817;248;24108;-76
2023/05/15 05:13:37;;;;;;;13.00;5.63;;;15.50;99.90;14.90;100046;;;;570125;248;24099;-77
2023/05/15 05:16:05;;;;;;;11.00;5.70;;;15.70;99.90;15.00;100038;;;;569835;248;24158;-74
2023/05/15 05:18:34;;;;;;;17.87;6.03;;;15.60;99.90;15.00;100032;;;;569899;248;24094;-78
2023/05/15 05:21:05;;;;;;;11.80;5.87;;;15.70;99.90;15.10;100036;;;;569879;248;24080;-75
2023/05/15 05:23:30;;;;;;;20.60;5.80;;;15.70;99.90;15.10;100039;;;;578228;248;24099;-81
2023/05/15 05:25:58;;;;;;;14.27;6.30;;;15.70;99.90;15.20;100035;;;;569836;248;24096;-81
2023/05/15 05:28:26;;;;;;;14.10;6.80;;;16.10;99.90;15.20;100043;;;;578512;248;24218;-79
2023/05/15 05:30:55;;;;;;;19.27;6.67;;;15.90;99.90;15.20;100042;;;;569838;248;24122;-77
2023/05/15 05:33:23;;;;;;;15.27;6.00;;;15.90;99.90;15.30;100042;;;;569922;248;25145;-80
2023/05/15 05:35:51;;;;;;;12.43;5.93;;;16.00;99.90;15.30;100037;;;;569986;248;24092;-80
2023/05/15 05:38:19;;;;;;;12.77;6.13;;;15.80;99.90;15.20;100040;;;;569585;248;24110;-77
2023/05/15 05:40:47;;;;;;;15.80;6.33;;;15.80;99.90;15.10;100041;;;;569899;248;24135;-78
2023/05/15 05:43:15;;;;;;;17.30;5.83;;;15.80;99.90;15.10;100037;;;;570070;248;24164;-76
2023/05/15 05:45:43;;;;;;;14.90;7.33;;;15.80;99.90;15.10;100040;;;;569544;248;24104;-79
2023/05/15 05:48:12;;;;;;;19.43;6.90;;;15.70;99.90;15.10;100035;;;;569761;248;24110;-74
2023/05/15 05:50:44;;;;;;;10.27;5.57;;;15.70;99.90;15.10;100032;;;;569552;248;24098;-75
2023/05/15 05:53:09;;;;;;;11.20;5.97;;;15.70;99.90;15.10;100033;;;;569407;248;25129;-73
2023/05/15 05:55:37;;;;;;;20.70;6.97;;;15.60;99.90;15.10;100044;;;;569642;248;24111;-75
2023/05/15 05:58:06;;;;;;;21.40;6.97;;;15.60;99.90;15.00;100024;;;;569765;248;24118;-74
2023/05/15 06:00:34;;;;;;;21.33;6.97;;;15.50;99.90;15.10;100029;;;;570046;248;24080;-78
2023/05/15 06:03:02;;;;;;;16.47;6.73;;;16.00;99.90;15.10;100036;;;;580037;246;24134;-73
2023/05/15 06:05:30;;;;;;;16.33;6.63;;;15.90;99.90;15.10;100027;;;;570952;247;24076;-74
2023/05/15 06:07:59;;;;;;;11.77;5.80;;;15.70;99.90;15.10;100039;;;;569530;247;24111;-74
2023/05/15 06:10:26;;;;;;;23.70;7.00;;;15.70;99.90;15.10;100052;;;;570304;248;24126;-72
2023/05/15 06:12:55;;;;;;;16.30;6.23;;;15.60;99.90;15.10;100058;;;;570014;248;24103;-75
2023/05/15 06:15:22;;;;;;;15.83;6.67;;;16.30;99.90;15.10;100056;;;;570034;248;24068;-74
2023/05/15 06:17:50;;;;;;;14.63;6.50;;;15.60;99.90;15.10;100057;;;;570335;248;24144;-75
2023/05/15 06:20:19;;;;;;;15.43;6.90;;;15.90;99.90;15.10;100068;;;;570103;248;24171;-75
2023/05/15 06:22:48;;;;;;;18.03;7.23;;;15.70;99.90;15.20;100068;;;;570227;248;24090;-73
2023/05/15 06:25:15;;;;;;;30.53;8.60;;;15.70;99.90;15.20;100024;;;;565053;248;35359;-75
2023/05/15 06:27:43;;;;;;;16.07;5.60;;;15.80;99.90;15.20;99999;;;;570234;248;24075;-76
2023/05/15 06:30:12;;;;;;;9.43;4.60;;;15.80;99.90;15.30;100004;;;;562021;252;24106;-73
2023/05/15 06:32:40;;;;;;;14.97;4.47;;;16.00;99.90;15.30;99998;;;;578939;247;25354;-79
2023/05/15 06:35:08;;;;;;;6.77;3.63;;;15.80;99.90;15.50;100005;;;;562006;250;24153;-72
2023/05/15 06:37:37;;;;;;;13.18;5.90;;;16.30;99.90;15.70;100017;;;;573649;248;35367;-74
2023/05/15 06:40:06;;;;;;;14.23;5.43;;;16.40;99.90;15.90;100026;;;;569605;248;24092;-74
2023/05/15 06:42:34;;;;;;;7.53;4.23;;;16.70;99.90;16.10;100015;;;;569673;248;24093;-76
2023/05/15 06:45:02;;;;;;;18.27;5.20;;;17.10;99.90;16.20;99998;;;;569554;248;24087;-79
2023/05/15 06:47:30;;;;;;;26.77;24.77;;;16.70;99.90;16.30;99996;;;;558869;252;24200;-78
2023/05/15 06:49:58;;;;;;;18.13;6.73;;;17.20;99.90;16.50;99982;;;;578284;247;24090;-76
2023/05/15 06:52:26;;;;;;;16.23;11.30;;;17.20;99.90;16.60;99976;;;;558854;252;24119;-79
2023/05/15 06:54:55;;;;;;;9.73;4.03;;;17.30;99.90;16.70;99985;;;;578289;247;24084;-78
2023/05/15 06:57:23;;;;;;;7.67;4.20;;;17.30;99.90;16.80;99988;;;;558679;252;24147;-77
2023/05/15 06:59:51;;;;;;;21.90;6.60;;;17.80;99.90;17.00;99985;;;;578633;247;24102;-77
2023/05/15 07:02:19;;;;;;;11.23;5.00;;;17.70;99.90;17.10;99978;;;;559090;252;24129;-79
2023/05/15 07:04:47;;;;;;;10.27;4.57;;;17.80;99.90;17.20;100011;;;;578638;247;23118;-78
2023/05/15 07:07:15;;;;;;;19.47;4.77;;;17.80;99.90;17.30;100020;;;;570034;248;24090;-74
2023/05/15 07:09:47;;;;;;;9.30;4.57;;;18.30;99.90;17.40;100004;;;;569958;248;24138;-74
2023/05/15 07:12:11;;;;;;;8.93;4.47;;;18.20;99.90;17.30;100002;;;;569616;248;24085;-80
2023/05/15 07:14:40;;;;;;;11.23;4.63;;;17.90;99.90;17.40;100005;;;;570912;247;24114;-77
2023/05/15 07:17:08;;;;;;;9.00;4.43;;;17.90;99.90;17.40;100012;;;;570769;247;24086;-79
2023/05/15 07:19:36;;;;;;;11.53;4.90;;;18.20;99.90;17.40;100004;;;;570465;247;24094;-78
2023/05/15 07:22:04;;;;;;;12.00;4.03;;;18.00;99.90;17.50;99993;;;;570725;248;24162;-78
2023/05/15 07:24:33;;;;;;;31.93;6.53;;;18.10;99.90;17.50;99995;;;;559544;252;25174;-78
2023/05/15 07:27:01;;;;;;;13.23;4.10;;;18.10;99.90;17.50;100016;;;;579144;247;24123;-75
2023/05/15 07:29:29;;;;;;;20.10;5.60;;;18.00;99.90;17.50;99987;;;;570781;248;24108;-74
2023/05/15 07:31:57;;;;;;;12.37;4.70;;;18.10;99.90;17.40;99974;;;;559518;252;24132;-76
2023/05/15 07:34:26;;;;;;;10.93;4.23;;;17.90;99.90;17.30;99959;;;;579008;247;24117;-73
2023/05/15 07:36:54;;;;;;;14.87;4.03;;;17.60;99.90;17.30;99953;;;;559534;252;24114;-77
2023/05/15 07:39:22;;;;;;;11.03;3.77;;;17.90;99.90;17.30;99943;;;;579209;248;24086;-75
2023/05/15 07:41:50;;;;;;;12.70;3.87;;;18.60;99.90;17.40;99934;;;;559091;252;24131;-76
2023/05/15 07:44:18;;;;;;;8.73;3.80;;;18.00;99.90;17.50;99936;;;;578681;247;24098;-74
2023/05/15 07:46:47;;;;;;;10.10;3.53;;;18.10;97.80;17.50;99939;;;;559159;252;24116;-73
2023/05/15 07:49:15;;;;;;;7.33;3.57;;;17.90;98.80;17.60;99933;;;;578475;248;24072;-76
2023/05/15 07:51:43;;;;;;;7.17;3.63;;;18.00;98.30;17.70;99935;;;;558892;252;24125;-78
2023/05/15 07:54:11;;;;;;;4.30;3.03;;;18.40;97.40;17.90;99932;;;;569744;248;24100;-80
2023/05/15 07:56:38;;;;;;;8.10;3.77;;;18.50;98.20;18.00;99928;;;;559086;252;24110;-78
2023/05/15 07:59:08;;;;;;;11.60;4.10;;;18.70;97.00;18.20;99922;;;;578299;247;24177;-75
2023/05/15 08:01:36;;;;;;;8.37;4.00;;;18.90;96.50;18.30;99929;;;;566849;252;24103;-78
2023/05/15 08:04:04;;;;;;;12.33;5.00;;;19.50;97.30;18.40;99929;;;;578284;247;24085;-76
2023/05/15 08:06:32;;;;;;;12.60;4.97;;;19.10;95.50;18.40;99928;;;;558421;252;24187;-80
2023/05/15 08:09:01;;;;;;;7.27;4.50;;;19.00;95.10;18.40;99932;;;;578384;247;23142;-76
2023/05/15 08:11:32;;;;;;;11.70;4.60;;;18.80;95.60;18.40;99926;;;;558928;252;24173;-80
2023/05/15 08:13:57;;;;;;;18.50;4.40;;;18.90;94.70;18.30;99922;;;;578183;248;24093;-75
2023/05/15 08:16:29;;;;;;;7.67;3.80;;;18.90;94.70;18.30;99933;;;;559028;252;23129;-79
2023/05/15 08:18:59;;;;;;;8.93;4.60;;;18.90;94.80;18.30;99922;;;;569474;248;24085;-79
2023/05/15 08:21:26;;;;;;;9.43;4.73;;;19.10;95.30;18.30;99929;;;;558618;252;24101;-78
2023/05/15 08:23:51;;;;;;;7.03;4.37;;;18.90;95.30;18.30;99923;;;;578175;248;24107;-81
2023/05/15 08:26:19;;;;;;;11.47;4.73;;;18.80;95.00;18.20;99952;;;;560229;252;24114;-80
2023/05/15 08:28:47;;;;;;;18.93;5.93;;;18.80;95.50;18.10;99961;;;;579581;247;23125;-81
2023/05/15 08:31:15;;;;;;;8.37;4.23;;;18.70;96.00;18.10;99961;;;;559849;252;24105;-82
2023/05/15 08:33:42;;;;;;;7.20;4.23;;;18.50;96.70;18.10;99971;;;;579431;247;23110;-81
2023/05/15 08:36:10;;;;;;;9.63;3.90;;;18.90;97.50;18.00;99944;;;;559645;252;23164;-78
2023/05/15 08:38:38;;;;;;;11.73;4.97;;;18.90;97.70;18.00;99928;;;;579197;247;24079;-81
2023/05/15 08:41:07;;;;;;;5.33;3.43;;;18.60;95.80;18.10;99950;;;;559578;252;24133;-80
2023/05/15 08:43:38;;;;;;;7.37;3.90;;;18.20;97.20;18.00;99945;;;;570246;248;24155;-78
2023/05/15 08:46:06;;;;;;;12.67;4.07;;;18.70;97.30;17.90;99952;;;;559130;252;24134;-78
2023/05/15 08:48:33;;;;;;;9.87;5.07;;;19.20;97.70;17.80;99942;;;;570023;248;24181;-79
2023/05/15 08:51:02;;;;;;;6.25;4.65;;;18.40;96.20;17.80;99952;;;;554472;252;35438;-81
2023/05/15 08:53:31;;;;;;;9.43;4.70;;;18.40;96.80;17.80;99947;;;;578401;248;24109;-81
2023/05/15 08:55:56;;;;;;;9.57;5.00;;;18.00;98.10;17.80;99936;;;;567452;251;24113;-80
2023/05/15 08:58:27;;;;;;;15.27;4.80;;;18.50;98.10;17.80;99932;;;;578675;247;24119;-79
2023/05/15 09:00:52;;;;;;;10.93;4.60;;;18.50;98.20;17.90;99939;;;;559249;252;24135;-80
2023/05/15 09:03:22;;;;;;;10.17;4.87;;;18.40;98.30;17.90;99944;;;;578672;247;23119;-80
2023/05/15 09:05:52;;;;;;;9.40;4.37;;;18.60;97.10;18.10;99945;;;;559149;252;23155;-75
2023/05/15 09:08:16;;;;;;;6.63;4.10;;;18.60;98.00;18.20;99941;;;;569962;248;23115;-79
2023/05/15 09:10:44;;;;;;;12.20;5.20;;;18.80;97.90;18.30;99936;;;;559090;252;24133;-78
2023/05/15 09:13:16;;;;;;;13.60;4.23;;;18.80;97.40;18.40;99906;;;;570192;248;24118;-81
2023/05/15 09:15:41;;;;;;;11.33;5.10;;;19.20;97.40;18.50;99948;;;;558694;252;24123;-79
2023/05/15 09:18:11;;;;;;;8.30;4.97;;;19.10;96.00;18.60;99935;;;;569705;248;24080;-80
2023/05/15 09:20:36;;;;;;;8.70;4.70;;;19.10;96.60;18.80;99940;;;;559013;252;24114;-80
2023/05/15 09:23:04;;;;;;;7.50;5.47;;;19.50;95.80;19.00;99943;;;;569584;248;24130;-79
2023/05/15 09:25:37;;;;;;;12.23;4.87;;;19.40;95.50;18.90;99940;;;;558792;252;24169;-78
2023/05/15 09:28:03;;;;;;;7.20;5.03;;;18.90;94.90;18.80;99932;;;;569800;248;23120;-78
2023/05/15 09:30:31;;;;;;;13.83;5.43;;;19.10;95.20;18.80;99939;;;;567747;251;24179;-79
2023/05/15 09:33:03;;;;;;;9.57;5.07;;;19.30;94.70;18.70;99945;;;;578801;247;24078;-82
2023/05/15 09:35:34;;;;;;;11.93;5.97;;;19.30;95.60;18.70;99935;;;;558800;252;24102;-77
2023/05/15 09:38:01;;;;;;;6.53;4.50;;;19.20;95.10;18.80;99926;;;;571286;247;23104;-76
2023/05/15 09:40:32;;;;;;;9.10;5.20;;;19.30;95.40;18.80;99919;;;;568359;247;24120;-80
2023/05/15 09:42:58;;;;;;;12.47;5.33;;;19.30;94.60;18.70;99924;;;;573740;247;23119;-80
2023/05/15 09:45:28;;;;;;;10.97;5.63;;;19.20;94.60;18.60;99915;;;;559780;252;23127;-80
2023/05/15 09:47:55;;;;;;;12.43;6.37;;;19.10;95.90;18.60;99922;;;;578905;248;24078;-81
2023/05/15 09:50:23;;;;;;;13.50;5.57;;;18.80;97.50;18.40;99924;;;;569946;248;24123;-80
2023/05/15 09:52:50;;;;;;;13.10;5.80;;;19.30;96.30;18.30;99909;;;;559281;252;24098;-78
2023/05/15 09:55:19;;;;;;;16.23;5.73;;;18.80;95.90;18.20;99921;;;;578825;247;24079;-78
2023/05/15 09:58:15;;;;;;;22.10;7.17;;;18.70;96.80;18.10;99928;;;;558959;252;24110;-76
2023/05/15 10:00:44;;;;;;;7.60;5.13;;;18.70;97.20;18.20;99929;;;;573215;247;24122;-74
2023/05/15 10:03:12;;;;;;;13.17;6.63;;;18.90;98.60;18.30;99929;;;;562526;252;35627;-79
2023/05/15 10:05:44;;;;;;;13.87;6.43;;;18.90;99.20;18.40;99941;;;;573244;247;24123;-77
2023/05/15 10:08:08;;;;;;;17.27;6.53;;;19.40;99.20;18.40;99948;;;;559114;252;24110;-78
2023/05/15 10:10:37;;;;;;;13.13;7.15;;;19.00;98.50;18.40;99948;;;;573639;247;35514;-79
2023/05/15 10:13:06;;;;;;;17.40;7.20;;;19.00;99.50;18.30;99953;;;;558975;252;23148;-74
2023/05/15 10:15:34;;;;;;;13.57;6.50;;;18.70;99.90;18.20;99959;;;;569685;248;23134;-73
2023/05/15 10:18:02;;;;;;;12.77;6.23;;;18.60;99.90;17.90;99962;;;;558453;252;23126;-74
2023/05/15 10:20:30;;;;;;;14.33;6.33;;;18.00;99.90;17.60;99965;;;;569144;248;23112;-72
2023/05/15 10:23:00;;;;;;;10.53;4.97;;;17.80;99.90;17.30;99971;;;;558613;252;24120;-73
2023/05/15 10:25:52;;;;;;;11.73;4.93;;;17.00;99.90;16.60;99967;;;;577891;247;24114;-75
2023/05/15 10:28:20;;;;;;;11.37;4.53;;;16.20;99.90;15.80;99975;;;;558510;252;24210;-80
2023/05/15 10:30:49;;;;;;;14.97;5.07;;;15.80;99.90;15.10;99968;;;;569683;248;25136;-80
2023/05/15 10:33:18;;;;;;;13.47;4.73;;;15.20;99.90;14.50;99958;;;;558865;252;24149;-79
2023/05/15 10:35:46;;;;;;;19.20;6.50;;;14.70;99.90;14.10;99949;;;;557299;255;24120;-80
2023/05/15 10:38:15;;;;;;;19.40;6.17;;;14.40;99.90;13.70;99940;;;;569642;248;24116;-76
2023/05/15 10:40:43;;;;;;;15.90;6.30;;;14.20;99.90;13.60;99925;;;;558779;252;24185;-76
2023/05/15 10:43:11;;;;;;;16.13;6.07;;;13.90;99.90;13.30;99915;;;;569657;248;24110;-74
2023/05/15 10:45:40;;;;;;;15.53;6.10;;;13.80;99.90;13.20;99914;;;;567223;252;24123;-79
2023/05/15 10:48:11;;;;;;;21.23;7.57;;;13.70;99.90;13.20;99893;;;;573319;247;24090;-79
2023/05/15 10:50:37;;;;;;;17.40;6.67;;;13.70;99.90;13.10;99886;;;;559545;252;24129;-80
2023/05/15 10:53:06;;;;;;;14.37;5.83;;;13.60;99.90;13.00;99859;;;;570202;247;24157;-70
2023/05/15 10:55:34;;;;;;;11.33;4.70;;;13.60;99.90;12.80;99852;;;;559396;252;24125;-73
2023/05/15 10:58:02;;;;;;;12.50;5.83;;;13.40;99.90;12.80;99850;;;;569934;248;24138;-75
2023/05/15 11:00:30;;;;;;;9.23;3.80;;;13.30;99.90;12.70;99835;;;;559132;252;24145;-72
2023/05/15 11:02:59;;;;;;;20.50;7.60;;;13.20;99.90;12.60;99822;;;;578964;247;24086;-72
2023/05/15 11:05:30;;;;;;;38.57;19.87;;;14.10;99.90;12.50;99812;;;;559294;252;25205;-72
2023/05/15 11:08:24;;;;;;;19.93;5.67;;;13.00;99.90;12.40;99805;;;;569542;248;24198;-78
2023/05/15 11:10:52;;;;;;;7.83;4.10;;;12.80;99.90;12.40;99797;;;;569700;248;24138;-75
2023/05/15 11:13:19;;;;;;;19.58;7.50;;;13.20;99.90;12.50;99795;;;;554290;252;35523;-76
2023/05/15 11:15:47;;;;;;;12.13;5.10;;;12.80;99.90;12.50;99785;;;;578693;247;24143;-74